sensor_id;sensor_type;location;lat;lon;timestamp;temperature;humidity
71237;DHT22;58984;51.960;5.582;2023-05-18T00:00:58;17.50;45.10
71237;DHT22;58984;51.960;5.582;2023-05-18T00:03:24;17.50;45.10
71237;DHT22;58984;51.960;5.582;2023-05-18T00:05:50;17.50;45.10
71237;DHT22;58984;51.960;5.582;2023-05-18T00:08:15;17.50;45.20
71237;DHT22;58984;51.960;5.582;2023-05-18T00:10:41;17.40;45.10
71237;DHT22;58984;51.960;5.582;2023-05-18T00:13:07;17.40;45.10
71237;DHT22;58984;51.960;5.582;2023-05-18T00:15:33;17.30;45.10
71237;DHT22;58984;51.960;5.582;2023-05-18T00:17:58;17.30;45.10
71237;DHT22;58984;51.960;5.582;2023-05-18T00:20:24;17.30;45.10
71237;DHT22;58984;51.960;5.582;2023-05-18T00:22:51;17.30;45.10
71237;DHT22;58984;51.960;5.582;2023-05-18T00:25:17;17.30;45.20
71237;DHT22;58984;51.960;5.582;2023-05-18T00:27:42;17.30;45.20
71237;DHT22;58984;51.960;5.582;2023-05-18T00:30:08;17.30;45.20
71237;DHT22;58984;51.960;5.582;2023-05-18T00:32:34;17.20;45.20
71237;DHT22;58984;51.960;5.582;2023-05-18T00:35:00;17.20;45.20
71237;DHT22;58984;51.960;5.582;2023-05-18T00:37:25;17.20;45.20
71237;DHT22;58984;51.960;5.582;2023-05-18T00:39:51;17.20;45.30
71237;DHT22;58984;51.960;5.582;2023-05-18T00:42:16;17.20;45.30
71237;DHT22;58984;51.960;5.582;2023-05-18T00:44:42;17.20;45.30
71237;DHT22;58984;51.960;5.582;2023-05-18T00:47:08;17.10;45.20
71237;DHT22;58984;51.960;5.582;2023-05-18T00:49:33;17.10;45.30
71237;DHT22;58984;51.960;5.582;2023-05-18T00:52:00;17.00;45.30
71237;DHT22;58984;51.960;5.582;2023-05-18T00:54:27;17.00;45.30
71237;DHT22;58984;51.960;5.582;2023-05-18T00:56:52;17.00;45.30
71237;DHT22;58984;51.960;5.582;2023-05-18T00:59:18;17.00;45.40
71237;DHT22;58984;51.960;5.582;2023-05-18T01:01:44;17.00;45.40
71237;DHT22;58984;51.960;5.582;2023-05-18T01:04:11;17.00;45.40
71237;DHT22;58984;51.960;5.582;2023-05-18T01:06:40;16.90;45.30
71237;DHT22;58984;51.960;5.582;2023-05-18T01:09:09;17.00;45.40
71237;DHT22;58984;51.960;5.582;2023-05-18T01:11:55;16.90;45.40
71237;DHT22;58984;51.960;5.582;2023-05-18T01:14:36;16.80;45.40
71237;DHT22;58984;51.960;5.582;2023-05-18T01:17:40;16.80;45.40
71237;DHT22;58984;51.960;5.582;2023-05-18T01:20:16;16.80;45.40
71237;DHT22;58984;51.960;5.582;2023-05-18T01:28:27;16.70;44.90
71237;DHT22;58984;51.960;5.582;2023-05-18T01:30:54;16.70;45.40
71237;DHT22;58984;51.960;5.582;2023-05-18T01:33:20;16.70;45.40
71237;DHT22;58984;51.960;5.582;2023-05-18T01:35:46;16.70;45.50
71237;DHT22;58984;51.960;5.582;2023-05-18T01:38:16;16.70;45.50
71237;DHT22;58984;51.960;5.582;2023-05-18T01:43:19;16.60;45.50
71237;DHT22;58984;51.960;5.582;2023-05-18T01:45:46;16.60;45.50
71237;DHT22;58984;51.960;5.582;2023-05-18T01:48:17;16.60;45.60
71237;DHT22;58984;51.960;5.582;2023-05-18T01:50:47;16.60;46.20
71237;DHT22;58984;51.960;5.582;2023-05-18T01:53:32;16.60;45.70
71237;DHT22;58984;51.960;5.582;2023-05-18T01:56:00;16.50;45.60
71237;DHT22;58984;51.960;5.582;2023-05-18T01:58:27;16.60;45.70
71237;DHT22;58984;51.960;5.582;2023-05-18T02:00:53;16.50;45.60
71237;DHT22;58984;51.960;5.582;2023-05-18T02:03:18;16.50;45.60
71237;DHT22;58984;51.960;5.582;2023-05-18T02:05:44;16.50;45.60
71237;DHT22;58984;51.960;5.582;2023-05-18T02:08:10;16.50;45.60
71237;DHT22;58984;51.960;5.582;2023-05-18T02:10:35;16.50;45.60
71237;DHT22;58984;51.960;5.582;2023-05-18T02:13:01;16.40;45.60
71237;DHT22;58984;51.960;5.582;2023-05-18T02:15:27;16.40;45.60
71237;DHT22;58984;51.960;5.582;2023-05-18T02:17:52;16.40;45.60
71237;DHT22;58984;51.960;5.582;2023-05-18T02:20:22;16.40;45.60
71237;DHT22;58984;51.960;5.582;2023-05-18T02:22:48;16.40;45.60
71237;DHT22;58984;51.960;5.582;2023-05-18T02:25:13;16.40;45.60
71237;DHT22;58984;51.960;5.582;2023-05-18T02:27:39;16.30;45.50
71237;DHT22;58984;51.960;5.582;2023-05-18T02:30:05;16.30;45.50
71237;DHT22;58984;51.960;5.582;2023-05-18T02:32:34;16.30;45.50
71237;DHT22;58984;51.960;5.582;2023-05-18T02:35:06;16.30;45.50
71237;DHT22;58984;51.960;5.582;2023-05-18T02:37:32;16.20;45.40
71237;DHT22;58984;51.960;5.582;2023-05-18T02:40:11;16.30;45.50
71237;DHT22;58984;51.960;5.582;2023-05-18T02:42:37;16.20;45.40
71237;DHT22;58984;51.960;5.582;2023-05-18T02:45:03;16.20;45.60
71237;DHT22;58984;51.960;5.582;2023-05-18T02:47:28;16.20;45.60
71237;DHT22;58984;51.960;5.582;2023-05-18T02:49:54;16.20;45.80
71237;DHT22;58984;51.960;5.582;2023-05-18T02:52:19;16.20;45.80
71237;DHT22;58984;51.960;5.582;2023-05-18T02:54:45;16.20;45.80
71237;DHT22;58984;51.960;5.582;2023-05-18T02:57:11;16.20;45.80
71237;DHT22;58984;51.960;5.582;2023-05-18T02:59:38;16.20;45.90
71237;DHT22;58984;51.960;5.582;2023-05-18T03:02:04;16.20;45.90
71237;DHT22;58984;51.960;5.582;2023-05-18T03:04:30;16.10;45.90
71237;DHT22;58984;51.960;5.582;2023-05-18T03:06:56;16.10;45.90
71237;DHT22;58984;51.960;5.582;2023-05-18T03:09:23;16.10;46.00
71237;DHT22;58984;51.960;5.582;2023-05-18T03:11:48;16.10;45.90
71237;DHT22;58984;51.960;5.582;2023-05-18T03:14:16;16.10;46.00
71237;DHT22;58984;51.960;5.582;2023-05-18T03:16:41;16.10;46.00
71237;DHT22;58984;51.960;5.582;2023-05-18T03:19:07;16.10;46.00
71237;DHT22;58984;51.960;5.582;2023-05-18T03:21:32;16.10;46.00
71237;DHT22;58984;51.960;5.582;2023-05-18T03:24:00;16.00;46.00
71237;DHT22;58984;51.960;5.582;2023-05-18T03:26:26;16.00;46.00
71237;DHT22;58984;51.960;5.582;2023-05-18T03:28:55;16.00;46.00
71237;DHT22;58984;51.960;5.582;2023-05-18T03:31:21;16.00;46.00
71237;DHT22;58984;51.960;5.582;2023-05-18T03:33:46;16.00;46.10
71237;DHT22;58984;51.960;5.582;2023-05-18T03:36:12;15.90;46.00
71237;DHT22;58984;51.960;5.582;2023-05-18T03:38:37;15.90;46.10
71237;DHT22;58984;51.960;5.582;2023-05-18T03:41:03;15.90;46.10
71237;DHT22;58984;51.960;5.582;2023-05-18T03:43:29;15.90;46.10
71237;DHT22;58984;51.960;5.582;2023-05-18T03:45:56;15.90;46.10
71237;DHT22;58984;51.960;5.582;2023-05-18T03:48:23;15.90;46.10
71237;DHT22;58984;51.960;5.582;2023-05-18T03:50:49;15.90;46.10
71237;DHT22;58984;51.960;5.582;2023-05-18T03:53:15;15.80;46.00
71237;DHT22;58984;51.960;5.582;2023-05-18T03:55:46;15.80;46.10
71237;DHT22;58984;51.960;5.582;2023-05-18T03:58:13;15.80;46.10
71237;DHT22;58984;51.960;5.582;2023-05-18T04:00:39;15.80;46.10
71237;DHT22;58984;51.960;5.582;2023-05-18T04:03:07;15.80;46.10
71237;DHT22;58984;51.960;5.582;2023-05-18T04:05:37;15.80;46.20
71237;DHT22;58984;51.960;5.582;2023-05-18T04:08:03;15.70;46.20
71237;DHT22;58984;51.960;5.582;2023-05-18T04:10:29;15.70;46.80
71237;DHT22;58984;51.960;5.582;2023-05-18T04:12:55;15.70;46.20
71237;DHT22;58984;51.960;5.582;2023-05-18T04:15:21;15.70;46.20
71237;DHT22;58984;51.960;5.582;2023-05-18T04:17:51;15.70;46.30
71237;DHT22;58984;51.960;5.582;2023-05-18T04:20:18;15.60;46.20
71237;DHT22;58984;51.960;5.582;2023-05-18T04:22:46;15.70;46.30
71237;DHT22;58984;51.960;5.582;2023-05-18T04:25:15;15.60;46.30
71237;DHT22;58984;51.960;5.582;2023-05-18T04:27:42;15.60;46.30
71237;DHT22;58984;51.960;5.582;2023-05-18T04:30:10;15.60;46.30
71237;DHT22;58984;51.960;5.582;2023-05-18T04:32:36;15.60;46.40
71237;DHT22;58984;51.960;5.582;2023-05-18T04:35:05;15.60;46.50
71237;DHT22;58984;51.960;5.582;2023-05-18T04:37:32;15.60;46.50
71237;DHT22;58984;51.960;5.582;2023-05-18T04:39:58;15.60;46.50
71237;DHT22;58984;51.960;5.582;2023-05-18T04:42:27;15.60;46.50
71237;DHT22;58984;51.960;5.582;2023-05-18T04:44:52;15.60;46.50
71237;DHT22;58984;51.960;5.582;2023-05-18T04:47:19;15.50;46.50
71237;DHT22;58984;51.960;5.582;2023-05-18T04:49:46;15.60;46.60
71237;DHT22;58984;51.960;5.582;2023-05-18T04:52:13;15.50;46.50
71237;DHT22;58984;51.960;5.582;2023-05-18T04:54:39;15.50;46.60
71237;DHT22;58984;51.960;5.582;2023-05-18T04:57:05;15.50;46.70
71237;DHT22;58984;51.960;5.582;2023-05-18T04:59:31;15.50;46.70
71237;DHT22;58984;51.960;5.582;2023-05-18T05:02:02;15.50;46.80
71237;DHT22;58984;51.960;5.582;2023-05-18T05:04:28;15.50;46.80
71237;DHT22;58984;51.960;5.582;2023-05-18T05:06:53;15.50;46.80
71237;DHT22;58984;51.960;5.582;2023-05-18T05:09:19;15.50;46.80
71237;DHT22;58984;51.960;5.582;2023-05-18T05:11:45;15.50;46.90
71237;DHT22;58984;51.960;5.582;2023-05-18T05:14:11;15.40;46.80
71237;DHT22;58984;51.960;5.582;2023-05-18T05:16:38;15.40;46.90
71237;DHT22;58984;51.960;5.582;2023-05-18T05:19:03;15.40;47.00
71237;DHT22;58984;51.960;5.582;2023-05-18T05:21:29;15.40;47.10
71237;DHT22;58984;51.960;5.582;2023-05-18T05:23:56;15.50;47.20
71237;DHT22;58984;51.960;5.582;2023-05-18T05:26:21;15.40;47.20
71237;DHT22;58984;51.960;5.582;2023-05-18T05:28:47;15.40;47.20
71237;DHT22;58984;51.960;5.582;2023-05-18T05:31:13;15.40;47.20
71237;DHT22;58984;51.960;5.582;2023-05-18T05:33:39;15.40;47.30
71237;DHT22;58984;51.960;5.582;2023-05-18T05:36:05;15.40;47.40
71237;DHT22;58984;51.960;5.582;2023-05-18T05:38:31;15.40;47.50
71237;DHT22;58984;51.960;5.582;2023-05-18T05:40:57;15.40;47.50
71237;DHT22;58984;51.960;5.582;2023-05-18T05:43:22;15.40;47.60
71237;DHT22;58984;51.960;5.582;2023-05-18T05:45:48;15.40;47.50
71237;DHT22;58984;51.960;5.582;2023-05-18T05:48:14;15.40;47.60
71237;DHT22;58984;51.960;5.582;2023-05-18T05:50:39;15.40;47.60
71237;DHT22;58984;51.960;5.582;2023-05-18T05:53:05;15.40;47.70
71237;DHT22;58984;51.960;5.582;2023-05-18T05:55:31;15.40;47.70
71237;DHT22;58984;51.960;5.582;2023-05-18T05:57:56;15.40;47.70
71237;DHT22;58984;51.960;5.582;2023-05-18T06:00:22;15.40;47.80
71237;DHT22;58984;51.960;5.582;2023-05-18T06:02:49;15.40;47.80
71237;DHT22;58984;51.960;5.582;2023-05-18T06:05:15;15.50;48.60
71237;DHT22;58984;51.960;5.582;2023-05-18T06:07:40;15.40;47.80
71237;DHT22;58984;51.960;5.582;2023-05-18T06:10:06;15.40;47.80
71237;DHT22;58984;51.960;5.582;2023-05-18T06:12:32;15.40;47.70
71237;DHT22;58984;51.960;5.582;2023-05-18T06:14:58;15.40;47.90
71237;DHT22;58984;51.960;5.582;2023-05-18T06:17:27;15.40;47.90
71237;DHT22;58984;51.960;5.582;2023-05-18T06:19:53;15.50;47.80
71237;DHT22;58984;51.960;5.582;2023-05-18T06:22:19;15.40;47.70
71237;DHT22;58984;51.960;5.582;2023-05-18T06:24:44;15.40;47.70
71237;DHT22;58984;51.960;5.582;2023-05-18T06:27:10;15.50;47.70
71237;DHT22;58984;51.960;5.582;2023-05-18T06:29:36;15.50;47.70
71237;DHT22;58984;51.960;5.582;2023-05-18T06:32:02;15.40;47.60
71237;DHT22;58984;51.960;5.582;2023-05-18T06:34:28;15.50;47.70
71237;DHT22;58984;51.960;5.582;2023-05-18T06:36:53;15.50;47.70
71237;DHT22;58984;51.960;5.582;2023-05-18T06:39:19;15.50;47.70
71237;DHT22;58984;51.960;5.582;2023-05-18T06:41:45;15.60;47.90
71237;DHT22;58984;51.960;5.582;2023-05-18T06:44:11;15.60;47.90
71237;DHT22;58984;51.960;5.582;2023-05-18T06:46:37;15.50;47.90
71237;DHT22;58984;51.960;5.582;2023-05-18T06:49:03;15.60;47.90
71237;DHT22;58984;51.960;5.582;2023-05-18T06:51:29;15.60;47.90
71237;DHT22;58984;51.960;5.582;2023-05-18T06:53:55;15.50;48.00
71237;DHT22;58984;51.960;5.582;2023-05-18T06:56:21;15.60;48.10
71237;DHT22;58984;51.960;5.582;2023-05-18T06:58:47;15.60;48.10
71237;DHT22;58984;51.960;5.582;2023-05-18T07:01:13;15.60;48.10
71237;DHT22;58984;51.960;5.582;2023-05-18T07:03:39;15.70;48.20
71237;DHT22;58984;51.960;5.582;2023-05-18T07:06:05;15.60;48.10
71237;DHT22;58984;51.960;5.582;2023-05-18T07:08:31;15.70;48.20
71237;DHT22;58984;51.960;5.582;2023-05-18T07:10:57;15.70;48.10
71237;DHT22;58984;51.960;5.582;2023-05-18T07:13:24;15.70;48.10
71237;DHT22;58984;51.960;5.582;2023-05-18T07:15:49;15.80;48.20
71237;DHT22;58984;51.960;5.582;2023-05-18T07:18:15;15.80;48.20
71237;DHT22;58984;51.960;5.582;2023-05-18T07:20:41;15.80;48.30
71237;DHT22;58984;51.960;5.582;2023-05-18T07:23:07;15.80;48.30
71237;DHT22;58984;51.960;5.582;2023-05-18T07:25:32;15.90;48.40
71237;DHT22;58984;51.960;5.582;2023-05-18T07:27:58;15.80;48.30
71237;DHT22;58984;51.960;5.582;2023-05-18T07:30:25;15.90;48.40
71237;DHT22;58984;51.960;5.582;2023-05-18T07:32:51;15.90;49.00
71237;DHT22;58984;51.960;5.582;2023-05-18T07:35:17;15.90;48.40
71237;DHT22;58984;51.960;5.582;2023-05-18T07:37:44;15.90;48.40
71237;DHT22;58984;51.960;5.582;2023-05-18T07:40:10;15.90;48.40
71237;DHT22;58984;51.960;5.582;2023-05-18T07:42:38;16.00;48.40
71237;DHT22;58984;51.960;5.582;2023-05-18T07:45:04;16.00;48.40
71237;DHT22;58984;51.960;5.582;2023-05-18T07:47:30;16.00;48.40
71237;DHT22;58984;51.960;5.582;2023-05-18T07:49:56;16.00;48.40
71237;DHT22;58984;51.960;5.582;2023-05-18T07:52:22;16.10;48.50
71237;DHT22;58984;51.960;5.582;2023-05-18T07:54:47;16.10;48.50
71237;DHT22;58984;51.960;5.582;2023-05-18T07:57:13;16.10;48.60
71237;DHT22;58984;51.960;5.582;2023-05-18T07:59:39;16.10;48.50
71237;DHT22;58984;51.960;5.582;2023-05-18T08:02:04;16.10;48.40
71237;DHT22;58984;51.960;5.582;2023-05-18T08:04:30;16.20;48.60
71237;DHT22;58984;51.960;5.582;2023-05-18T08:06:56;16.20;48.60
71237;DHT22;58984;51.960;5.582;2023-05-18T08:09:28;16.20;48.60
71237;DHT22;58984;51.960;5.582;2023-05-18T08:11:53;16.20;48.60
71237;DHT22;58984;51.960;5.582;2023-05-18T08:14:19;16.30;48.70
71237;DHT22;58984;51.960;5.582;2023-05-18T08:16:46;16.30;48.80
71237;DHT22;58984;51.960;5.582;2023-05-18T08:19:11;16.30;48.70
71237;DHT22;58984;51.960;5.582;2023-05-18T08:21:37;16.30;48.70
71237;DHT22;58984;51.960;5.582;2023-05-18T08:24:03;16.40;48.90
71237;DHT22;58984;51.960;5.582;2023-05-18T08:26:29;16.40;48.90
71237;DHT22;58984;51.960;5.582;2023-05-18T08:28:54;16.40;49.00
71237;DHT22;58984;51.960;5.582;2023-05-18T08:31:20;16.50;49.20
71237;DHT22;58984;51.960;5.582;2023-05-18T08:33:46;16.50;49.20
71237;DHT22;58984;51.960;5.582;2023-05-18T08:36:12;16.50;49.30
71237;DHT22;58984;51.960;5.582;2023-05-18T08:38:38;16.60;49.30
71237;DHT22;58984;51.960;5.582;2023-05-18T08:41:19;16.60;49.20
71237;DHT22;58984;51.960;5.582;2023-05-18T08:44:01;16.60;49.30
71237;DHT22;58984;51.960;5.582;2023-05-18T08:46:33;16.60;49.20
71237;DHT22;58984;51.960;5.582;2023-05-18T08:49:00;16.70;49.30
71237;DHT22;58984;51.960;5.582;2023-05-18T08:51:29;16.70;49.30
71237;DHT22;58984;51.960;5.582;2023-05-18T08:53:58;16.70;49.20
71237;DHT22;58984;51.960;5.582;2023-05-18T08:56:25;16.80;49.10
71237;DHT22;58984;51.960;5.582;2023-05-18T08:58:55;16.80;49.10
71237;DHT22;58984;51.960;5.582;2023-05-18T09:01:22;16.80;49.10
71237;DHT22;58984;51.960;5.582;2023-05-18T09:03:52;16.80;49.10
71237;DHT22;58984;51.960;5.582;2023-05-18T09:06:22;16.90;49.20
71237;DHT22;58984;51.960;5.582;2023-05-18T09:08:54;16.90;49.20
71237;DHT22;58984;51.960;5.582;2023-05-18T09:11:21;16.90;49.20
71237;DHT22;58984;51.960;5.582;2023-05-18T09:13:49;16.90;49.20
71237;DHT22;58984;51.960;5.582;2023-05-18T09:16:17;17.00;49.30
71237;DHT22;58984;51.960;5.582;2023-05-18T09:18:43;17.00;49.30
71237;DHT22;58984;51.960;5.582;2023-05-18T09:21:09;17.00;49.30
71237;DHT22;58984;51.960;5.582;2023-05-18T09:23:37;17.00;49.30
71237;DHT22;58984;51.960;5.582;2023-05-18T09:26:03;17.00;49.50
71237;DHT22;58984;51.960;5.582;2023-05-18T09:28:35;17.10;49.30
71237;DHT22;58984;51.960;5.582;2023-05-18T09:31:02;17.10;49.30
71237;DHT22;58984;51.960;5.582;2023-05-18T09:33:33;17.20;49.40
71237;DHT22;58984;51.960;5.582;2023-05-18T09:35:59;17.20;49.40
71237;DHT22;58984;51.960;5.582;2023-05-18T09:38:25;17.20;49.40
71237;DHT22;58984;51.960;5.582;2023-05-18T09:40:52;17.30;49.50
71237;DHT22;58984;51.960;5.582;2023-05-18T09:43:19;17.30;49.50
71237;DHT22;58984;51.960;5.582;2023-05-18T09:45:46;17.40;49.50
71237;DHT22;58984;51.960;5.582;2023-05-18T09:48:14;17.40;49.50
71237;DHT22;58984;51.960;5.582;2023-05-18T09:50:40;17.40;49.40
71237;DHT22;58984;51.960;5.582;2023-05-18T09:53:07;17.40;49.60
71237;DHT22;58984;51.960;5.582;2023-05-18T09:55:36;17.40;49.60
71237;DHT22;58984;51.960;5.582;2023-05-18T09:58:03;17.50;49.70
71237;DHT22;58984;51.960;5.582;2023-05-18T10:00:31;17.50;49.70
71237;DHT22;58984;51.960;5.582;2023-05-18T10:03:01;17.60;49.90
71237;DHT22;58984;51.960;5.582;2023-05-18T10:05:28;17.60;50.10
71237;DHT22;58984;51.960;5.582;2023-05-18T10:07:59;17.70;50.20
71237;DHT22;58984;51.960;5.582;2023-05-18T10:10:26;17.70;50.20
71237;DHT22;58984;51.960;5.582;2023-05-18T10:12:53;17.70;50.30
71237;DHT22;58984;51.960;5.582;2023-05-18T10:15:23;17.80;50.30
71237;DHT22;58984;51.960;5.582;2023-05-18T10:17:50;17.80;50.40
71237;DHT22;58984;51.960;5.582;2023-05-18T10:20:21;17.90;50.30
71237;DHT22;58984;51.960;5.582;2023-05-18T10:22:48;17.90;50.40
71237;DHT22;58984;51.960;5.582;2023-05-18T10:25:19;18.10;50.50
71237;DHT22;58984;51.960;5.582;2023-05-18T10:27:47;18.10;50.20
71237;DHT22;58984;51.960;5.582;2023-05-18T10:30:14;18.10;50.40
71237;DHT22;58984;51.960;5.582;2023-05-18T10:32:42;18.10;50.20
71237;DHT22;58984;51.960;5.582;2023-05-18T10:35:09;18.20;50.30
71237;DHT22;58984;51.960;5.582;2023-05-18T10:37:37;18.20;50.60
71237;DHT22;58984;51.960;5.582;2023-05-18T10:40:05;18.20;50.00
71237;DHT22;58984;51.960;5.582;2023-05-18T10:42:32;18.20;50.10
71237;DHT22;58984;51.960;5.582;2023-05-18T10:44:59;18.30;50.30
71237;DHT22;58984;51.960;5.582;2023-05-18T10:47:27;18.40;48.40
71237;DHT22;58984;51.960;5.582;2023-05-18T10:49:53;18.60;46.20
71237;DHT22;58984;51.960;5.582;2023-05-18T10:52:19;18.70;46.40
71237;DHT22;58984;51.960;5.582;2023-05-18T10:54:46;18.80;47.10
71237;DHT22;58984;51.960;5.582;2023-05-18T10:57:17;18.80;48.00
71237;DHT22;58984;51.960;5.582;2023-05-18T10:59:44;18.90;48.40
71237;DHT22;58984;51.960;5.582;2023-05-18T11:02:13;19.00;48.90
71237;DHT22;58984;51.960;5.582;2023-05-18T11:04:39;19.00;48.90
71237;DHT22;58984;51.960;5.582;2023-05-18T11:07:12;19.00;49.10
71237;DHT22;58984;51.960;5.582;2023-05-18T11:09:42;19.00;49.60
71237;DHT22;58984;51.960;5.582;2023-05-18T11:12:15;19.00;49.60
71237;DHT22;58984;51.960;5.582;2023-05-18T11:14:52;19.00;49.80
71237;DHT22;58984;51.960;5.582;2023-05-18T11:17:27;19.10;49.80
71237;DHT22;58984;51.960;5.582;2023-05-18T11:23:00;19.10;50.50
71237;DHT22;58984;51.960;5.582;2023-05-18T11:28:00;19.30;50.30
71237;DHT22;58984;51.960;5.582;2023-05-18T11:33:09;19.30;50.40
71237;DHT22;58984;51.960;5.582;2023-05-18T11:36:04;19.40;50.60
71237;DHT22;58984;51.960;5.582;2023-05-18T11:38:52;19.40;50.70
71237;DHT22;58984;51.960;5.582;2023-05-18T11:41:35;19.40;50.80
71237;DHT22;58984;51.960;5.582;2023-05-18T11:44:19;19.50;50.80
71237;DHT22;58984;51.960;5.582;2023-05-18T11:49:26;19.60;50.80
71237;DHT22;58984;51.960;5.582;2023-05-18T11:52:01;19.60;50.70
71237;DHT22;58984;51.960;5.582;2023-05-18T11:54:27;19.60;50.80
71237;DHT22;58984;51.960;5.582;2023-05-18T11:56:54;19.70;50.70
71237;DHT22;58984;51.960;5.582;2023-05-18T11:59:42;19.70;51.00
71237;DHT22;58984;51.960;5.582;2023-05-18T12:02:10;19.70;51.10
71237;DHT22;58984;51.960;5.582;2023-05-18T12:05:06;19.90;51.00
71237;DHT22;58984;51.960;5.582;2023-05-18T12:07:33;19.90;51.20
71237;DHT22;58984;51.960;5.582;2023-05-18T12:10:20;20.00;51.00
71237;DHT22;58984;51.960;5.582;2023-05-18T12:12:51;20.00;51.10
71237;DHT22;58984;51.960;5.582;2023-05-18T12:15:20;20.10;51.00
71237;DHT22;58984;51.960;5.582;2023-05-18T12:17:48;20.10;50.60
71237;DHT22;58984;51.960;5.582;2023-05-18T12:20:14;20.20;51.10
71237;DHT22;58984;51.960;5.582;2023-05-18T12:22:45;20.20;51.10
71237;DHT22;58984;51.960;5.582;2023-05-18T12:25:11;20.20;51.20
71237;DHT22;58984;51.960;5.582;2023-05-18T12:27:41;20.30;51.20
71237;DHT22;58984;51.960;5.582;2023-05-18T12:30:15;20.30;51.20
71237;DHT22;58984;51.960;5.582;2023-05-18T12:32:49;20.40;51.20
71237;DHT22;58984;51.960;5.582;2023-05-18T12:35:15;20.30;50.80
71237;DHT22;58984;51.960;5.582;2023-05-18T12:37:45;20.40;50.70
71237;DHT22;58984;51.960;5.582;2023-05-18T12:40:13;20.50;50.90
71237;DHT22;58984;51.960;5.582;2023-05-18T12:42:39;20.50;51.00
71237;DHT22;58984;51.960;5.582;2023-05-18T12:45:05;20.50;51.00
71237;DHT22;58984;51.960;5.582;2023-05-18T12:47:31;20.50;51.00
71237;DHT22;58984;51.960;5.582;2023-05-18T12:50:00;20.60;51.20
71237;DHT22;58984;51.960;5.582;2023-05-18T12:52:27;20.60;51.10
71237;DHT22;58984;51.960;5.582;2023-05-18T12:54:56;20.60;50.90
71237;DHT22;58984;51.960;5.582;2023-05-18T12:57:28;20.60;51.00
71237;DHT22;58984;51.960;5.582;2023-05-18T12:59:56;20.70;51.10
71237;DHT22;58984;51.960;5.582;2023-05-18T13:02:37;20.70;50.90
71237;DHT22;58984;51.960;5.582;2023-05-18T13:05:10;20.70;50.90
71237;DHT22;58984;51.960;5.582;2023-05-18T13:07:41;20.80;50.80
71237;DHT22;58984;51.960;5.582;2023-05-18T13:12:50;20.80;50.50
71237;DHT22;58984;51.960;5.582;2023-05-18T13:17:58;20.80;50.30
71237;DHT22;58984;51.960;5.582;2023-05-18T13:20:45;20.80;50.30
71237;DHT22;58984;51.960;5.582;2023-05-18T13:23:18;20.80;50.10
71237;DHT22;58984;51.960;5.582;2023-05-18T13:25:45;20.90;50.10
71237;DHT22;58984;51.960;5.582;2023-05-18T13:28:12;21.00;50.30
71237;DHT22;58984;51.960;5.582;2023-05-18T13:30:39;20.90;50.50
71237;DHT22;58984;51.960;5.582;2023-05-18T13:33:05;20.90;50.10
71237;DHT22;58984;51.960;5.582;2023-05-18T13:35:35;20.90;50.20
71237;DHT22;58984;51.960;5.582;2023-05-18T13:38:01;21.00;50.10
71237;DHT22;58984;51.960;5.582;2023-05-18T13:40:26;21.00;50.10
71237;DHT22;58984;51.960;5.582;2023-05-18T13:42:52;21.00;50.00
71237;DHT22;58984;51.960;5.582;2023-05-18T13:45:18;21.00;49.40
71237;DHT22;58984;51.960;5.582;2023-05-18T13:47:46;21.00;49.70
71237;DHT22;58984;51.960;5.582;2023-05-18T13:50:16;21.00;49.40
71237;DHT22;58984;51.960;5.582;2023-05-18T13:52:41;21.00;49.70
71237;DHT22;58984;51.960;5.582;2023-05-18T13:55:07;21.00;49.60
71237;DHT22;58984;51.960;5.582;2023-05-18T13:57:33;21.00;49.50
71237;DHT22;58984;51.960;5.582;2023-05-18T13:59:59;21.00;49.30
71237;DHT22;58984;51.960;5.582;2023-05-18T14:02:42;21.00;49.30
71237;DHT22;58984;51.960;5.582;2023-05-18T14:05:08;21.00;49.30
71237;DHT22;58984;51.960;5.582;2023-05-18T14:07:38;21.00;49.30
71237;DHT22;58984;51.960;5.582;2023-05-18T14:10:05;21.00;49.30
71237;DHT22;58984;51.960;5.582;2023-05-18T14:12:31;21.00;49.30
71237;DHT22;58984;51.960;5.582;2023-05-18T14:14:57;21.00;49.30
71237;DHT22;58984;51.960;5.582;2023-05-18T14:17:23;21.00;49.30
71237;DHT22;58984;51.960;5.582;2023-05-18T14:19:49;21.00;49.40
71237;DHT22;58984;51.960;5.582;2023-05-18T14:22:14;21.10;49.70
71237;DHT22;58984;51.960;5.582;2023-05-18T14:24:41;21.00;49.30
71237;DHT22;58984;51.960;5.582;2023-05-18T14:27:07;21.00;49.30
71237;DHT22;58984;51.960;5.582;2023-05-18T14:29:32;21.00;49.40
71237;DHT22;58984;51.960;5.582;2023-05-18T14:31:58;21.00;49.10
71237;DHT22;58984;51.960;5.582;2023-05-18T14:34:24;21.00;49.10
71237;DHT22;58984;51.960;5.582;2023-05-18T14:36:51;21.00;49.20
71237;DHT22;58984;51.960;5.582;2023-05-18T14:39:17;21.00;49.40
71237;DHT22;58984;51.960;5.582;2023-05-18T14:41:42;21.00;49.30
71237;DHT22;58984;51.960;5.582;2023-05-18T14:44:08;21.00;49.10
71237;DHT22;58984;51.960;5.582;2023-05-18T14:46:34;21.00;48.80
71237;DHT22;58984;51.960;5.582;2023-05-18T14:49:00;21.00;48.70
71237;DHT22;58984;51.960;5.582;2023-05-18T14:51:26;21.00;48.60
71237;DHT22;58984;51.960;5.582;2023-05-18T14:53:51;21.10;48.80
71237;DHT22;58984;51.960;5.582;2023-05-18T14:56:17;21.00;48.30
71237;DHT22;58984;51.960;5.582;2023-05-18T14:58:42;21.00;48.50
71237;DHT22;58984;51.960;5.582;2023-05-18T15:01:08;21.00;48.50
71237;DHT22;58984;51.960;5.582;2023-05-18T15:03:34;21.00;48.70
71237;DHT22;58984;51.960;5.582;2023-05-18T15:05:59;21.00;48.70
71237;DHT22;58984;51.960;5.582;2023-05-18T15:08:25;21.00;48.80
71237;DHT22;58984;51.960;5.582;2023-05-18T15:10:51;21.00;48.70
71237;DHT22;58984;51.960;5.582;2023-05-18T15:13:17;21.00;48.60
71237;DHT22;58984;51.960;5.582;2023-05-18T15:15:42;21.00;48.60
71237;DHT22;58984;51.960;5.582;2023-05-18T15:18:08;21.00;48.20
71237;DHT22;58984;51.960;5.582;2023-05-18T15:20:34;21.00;48.30
71237;DHT22;58984;51.960;5.582;2023-05-18T15:22:59;21.00;48.40
71237;DHT22;58984;51.960;5.582;2023-05-18T15:25:26;21.00;48.50
71237;DHT22;58984;51.960;5.582;2023-05-18T15:27:51;21.00;48.50
71237;DHT22;58984;51.960;5.582;2023-05-18T15:30:20;21.00;48.50
71237;DHT22;58984;51.960;5.582;2023-05-18T15:32:45;21.00;48.50
71237;DHT22;58984;51.960;5.582;2023-05-18T15:35:11;20.90;48.40
71237;DHT22;58984;51.960;5.582;2023-05-18T15:37:37;21.00;48.40
71237;DHT22;58984;51.960;5.582;2023-05-18T15:40:02;21.00;48.50
71237;DHT22;58984;51.960;5.582;2023-05-18T15:42:28;20.90;48.50
71237;DHT22;58984;51.960;5.582;2023-05-18T15:44:55;21.00;48.50
71237;DHT22;58984;51.960;5.582;2023-05-18T15:47:20;21.00;48.70
71237;DHT22;58984;51.960;5.582;2023-05-18T15:49:46;20.90;48.70
71237;DHT22;58984;51.960;5.582;2023-05-18T15:52:11;20.90;48.50
71237;DHT22;58984;51.960;5.582;2023-05-18T15:54:37;20.90;48.40
71237;DHT22;58984;51.960;5.582;2023-05-18T15:57:03;20.90;48.40